createdAt,value
2023-01-11T01:46:34.571Z,100679.69
2023-01-11T02:43:05.299Z,100572.00
2023-01-11T03:34:03.411Z,100519.31
2023-01-11T03:40:33.978Z,100514.81
2023-01-11T04:13:12.829Z,100498.41
2023-01-11T04:24:18.531Z,100483.34
2023-01-11T04:26:45.609Z,100480.72
2023-01-11T06:52:41.981Z,100345.28
2023-01-11T06:55:09.624Z,100341.63
2023-01-11T06:57:36.766Z,100344.44
2023-01-11T07:00:04.349Z,100355.72
2023-01-11T07:02:31.989Z,100356.44
2023-01-11T07:04:59.155Z,100363.44
2023-01-11T07:07:26.311Z,100371.41
2023-01-11T07:09:54.351Z,100360.94
2023-01-11T07:12:21.495Z,100371.97
2023-01-11T07:14:48.578Z,100363.38
2023-01-11T07:17:15.729Z,100368.59
2023-01-11T07:19:43.054Z,100365.78
2023-01-11T07:22:10.205Z,100374.34
2023-01-11T07:24:37.326Z,100376.78
2023-01-11T07:27:05.138Z,100368.00
2023-01-11T07:29:32.266Z,100377.72
2023-01-11T07:31:59.609Z,100368.91
2023-01-11T07:34:26.829Z,100379.22
2023-01-11T07:36:53.944Z,100378.38
2023-01-11T07:39:24.875Z,100380.13
2023-01-11T07:42:15.387Z,100369.88
2023-01-11T07:44:42.561Z,100364.47
2023-01-11T07:47:09.786Z,100369.56
2023-01-11T07:49:36.963Z,100365.38
2023-01-11T07:52:04.237Z,100372.28
2023-01-11T07:54:31.282Z,100362.56
2023-01-11T07:56:58.526Z,100365.09
2023-01-11T07:59:25.666Z,100364.16
2023-01-11T08:01:52.875Z,100371.09
2023-01-11T08:04:19.970Z,100364.72
2023-01-11T08:06:47.120Z,100368.19
2023-01-11T08:09:14.284Z,100355.00
2023-01-11T08:12:00.240Z,100353.22
2023-01-11T08:14:39.640Z,100352.19
2023-01-11T08:17:08.157Z,100361.72
2023-01-11T08:19:35.300Z,100354.59
2023-01-11T08:22:02.936Z,100346.25
2023-01-11T08:24:30.218Z,100350.56
2023-01-11T08:26:57.342Z,100344.97
2023-01-11T08:29:25.623Z,100353.63
2023-01-11T08:31:52.888Z,100347.25
2023-01-11T08:34:19.968Z,100342.78
2023-01-11T08:36:47.107Z,100357.59
2023-01-11T08:39:14.350Z,100346.13
2023-01-11T08:41:41.559Z,100349.38
2023-01-11T08:44:09.293Z,100350.94
2023-01-11T08:46:37.988Z,100338.69
2023-01-11T08:49:11.891Z,100336.03
2023-01-11T08:51:40.150Z,100347.25
2023-01-11T08:54:11.533Z,100352.34
2023-01-11T08:56:38.756Z,100351.56
2023-01-11T08:59:06.397Z,100354.19
2023-01-11T09:01:33.622Z,100337.50
2023-01-11T09:04:01.496Z,100335.53
2023-01-11T09:06:29.512Z,100339.63
2023-01-11T09:08:56.595Z,100340.53
2023-01-11T09:11:42.621Z,100349.31
2023-01-11T09:14:09.686Z,100338.78
2023-01-11T09:16:36.867Z,100340.63
2023-01-11T09:19:03.952Z,100331.84
2023-01-11T09:21:31.658Z,100337.31
2023-01-11T09:23:58.741Z,100328.31
2023-01-11T09:26:25.868Z,100331.72
2023-01-11T09:28:52.974Z,100318.69
2023-01-11T09:31:20.205Z,100323.78
2023-01-11T09:33:47.488Z,100321.75
2023-01-11T09:36:15.090Z,100327.66
2023-01-11T09:38:43.221Z,100331.06
2023-01-11T09:41:23.166Z,100325.84
2023-01-11T09:44:16.299Z,100320.44
2023-01-11T09:46:51.537Z,100327.53
2023-01-11T09:49:31.088Z,100311.06
2023-01-11T09:52:11.478Z,100309.22
2023-01-11T09:54:38.910Z,100317.19
2023-01-11T09:57:38.445Z,100304.34
2023-01-11T10:00:35.002Z,100317.72
2023-01-11T10:03:03.474Z,100302.75
2023-01-11T10:05:35.744Z,100309.78
2023-01-11T10:18:34.386Z,100287.63
2023-01-11T10:18:39.202Z,100286.78
2023-01-11T10:20:38.339Z,100275.47
2023-01-11T10:23:10.132Z,100282.97
2023-01-11T10:25:47.883Z,100279.47
2023-01-11T10:28:23.096Z,100262.81
2023-01-11T10:30:57.840Z,100271.19
2023-01-11T10:33:49.418Z,100270.91
2023-01-11T10:36:42.817Z,100265.72
2023-01-11T10:39:46.437Z,100260.22
2023-01-11T10:42:22.827Z,100263.91
2023-01-11T10:45:01.145Z,100267.22
2023-01-11T10:47:37.341Z,100254.91
2023-01-11T10:50:33.174Z,100269.66
2023-01-11T10:53:07.919Z,100262.47
2023-01-11T10:55:44.587Z,100259.84
2023-01-11T10:58:23.651Z,100256.22
2023-01-11T11:01:20.395Z,100257.84
2023-01-11T11:03:50.062Z,100251.91
2023-01-11T11:06:41.107Z,100238.91
2023-01-11T11:09:20.801Z,100245.53
2023-01-11T11:11:53.214Z,100235.91
2023-01-11T11:15:02.057Z,100233.00
2023-01-11T11:17:33.016Z,100228.00
2023-01-11T11:20:01.294Z,100229.50
2023-01-11T11:22:29.794Z,100222.59
2023-01-11T11:25:05.599Z,100225.22
2023-01-11T11:28:06.450Z,100217.34
2023-01-11T11:30:39.049Z,100219.34
2023-01-11T11:33:13.971Z,100212.75
2023-01-11T11:35:43.856Z,100220.53
2023-01-11T11:38:30.213Z,100218.50
2023-01-11T11:41:06.313Z,100211.59
2023-01-11T11:43:38.773Z,100209.03
2023-01-11T11:46:19.348Z,100207.53
2023-01-11T11:49:15.965Z,100203.13
2023-01-11T11:51:45.960Z,100207.34
2023-01-11T11:54:44.397Z,100203.50
2023-01-11T11:57:21.121Z,100202.44
2023-01-11T11:59:51.638Z,100201.41
2023-01-11T12:02:27.262Z,100197.72
2023-01-11T12:04:58.168Z,100188.44
2023-01-11T12:07:49.705Z,100198.81
2023-01-11T12:10:23.864Z,100185.13
2023-01-11T12:13:02.027Z,100178.06
2023-01-11T12:15:30.463Z,100178.72
2023-01-11T12:18:22.304Z,100172.63
2023-01-11T12:20:49.569Z,100165.63
2023-01-11T12:23:24.050Z,100174.97
2023-01-11T12:26:09.410Z,100164.31
2023-01-11T12:29:14.081Z,100161.22
2023-01-11T12:32:10.325Z,100158.78
2023-01-11T12:34:52.276Z,100162.06
2023-01-11T12:37:25.579Z,100155.91
2023-01-11T12:40:00.902Z,100160.97
2023-01-11T12:42:52.607Z,100162.84
2023-01-11T12:45:25.607Z,100164.53
2023-01-11T12:48:07.756Z,100162.50
2023-01-11T12:50:46.415Z,100152.56
2023-01-11T12:53:30.405Z,100149.97
2023-01-11T12:56:23.933Z,100151.63
2023-01-11T12:59:17.062Z,100145.56
2023-01-11T13:01:54.166Z,100140.47
2023-01-11T13:04:42.301Z,100131.63
2023-01-11T13:07:51.186Z,100130.59
2023-01-11T13:10:30.401Z,100137.56
2023-01-11T13:13:07.776Z,100133.16
2023-01-11T13:15:58.999Z,100135.59
2023-01-11T13:18:33.253Z,100127.59
2023-01-11T13:21:09.400Z,100132.81
2023-01-11T13:23:41.976Z,100142.34
2023-01-11T13:26:21.154Z,100141.44
2023-01-11T13:28:56.631Z,100132.06
2023-01-11T13:31:24.210Z,100141.66
2023-01-11T13:33:57.170Z,100140.16
2023-01-11T13:36:29.671Z,100142.78
2023-01-11T13:39:20.428Z,100148.94
2023-01-11T13:41:51.077Z,100140.00
2023-01-11T13:44:27.902Z,100149.47
2023-01-11T13:47:06.226Z,100149.38
2023-01-11T13:49:59.354Z,100144.97
2023-01-11T13:52:29.405Z,100149.28
2023-01-11T13:55:05.457Z,100137.81
2023-01-11T13:58:10.258Z,100143.53
2023-01-11T14:00:58.031Z,100141.63
2023-01-11T14:03:30.287Z,100145.16
2023-01-11T14:06:25.409Z,100146.69
2023-01-11T14:09:07.396Z,100147.44
2023-01-11T14:11:44.507Z,100147.28
2023-01-11T14:14:27.040Z,100155.84
2023-01-11T14:17:19.015Z,100155.00
2023-01-11T14:19:54.109Z,100150.59
2023-01-11T14:22:29.953Z,100151.28
2023-01-11T14:25:01.253Z,100150.19
2023-01-11T14:27:31.038Z,100154.50
2023-01-11T14:30:07.053Z,100152.56
2023-01-11T14:32:53.982Z,100150.78
2023-01-11T14:35:40.341Z,100147.13
2023-01-11T14:38:32.493Z,100166.31
2023-01-11T14:41:36.408Z,100159.13
2023-01-11T14:44:38.496Z,100156.84
2023-01-11T14:47:21.458Z,100162.25
2023-01-11T14:50:24.490Z,100162.00
2023-01-11T14:52:52.321Z,100161.06
2023-01-11T14:55:32.306Z,100170.81
2023-01-11T16:09:09.998Z,100226.63
2023-01-11T16:25:31.821Z,100248.50
2023-01-11T16:36:49.054Z,100252.56
2023-01-11T16:39:21.756Z,100262.91
2023-01-11T16:41:56.076Z,100265.44
2023-01-11T16:44:48.105Z,100271.59
2023-01-11T16:47:17.234Z,100275.91
2023-01-11T16:49:49.135Z,100276.53
2023-01-11T16:52:28.137Z,100290.50
2023-01-11T16:54:57.070Z,100285.25
2023-01-11T16:57:31.758Z,100292.91
2023-01-11T17:00:05.287Z,100298.25
2023-01-11T17:02:39.336Z,100296.38
2023-01-11T17:05:18.506Z,100300.56
2023-01-11T17:07:45.687Z,100300.72
2023-01-11T17:10:31.119Z,100297.25
2023-01-11T17:13:36.668Z,100304.34
2023-01-11T17:16:09.340Z,100295.38
2023-01-11T17:18:40.470Z,100307.66
2023-01-11T17:21:19.044Z,100311.13
2023-01-11T17:23:47.323Z,100314.75
2023-01-11T17:26:17.492Z,100306.88
2023-01-11T17:28:46.099Z,100310.28
2023-01-11T17:31:25.384Z,100308.44
2023-01-11T17:34:16.617Z,100315.22
2023-01-11T17:36:44.613Z,100314.47
2023-01-11T17:39:32.880Z,100314.47
2023-01-11T17:42:20.780Z,100327.69
2023-01-11T18:10:49.536Z,100355.34
2023-01-11T20:31:02.008Z,100488.25
2023-01-11T20:51:32.510Z,100512.50
2023-01-11T21:30:24.666Z,100498.13
2023-01-11T21:50:31.551Z,100499.91
2023-01-11T21:52:59.193Z,100500.84
2023-01-11T21:55:26.427Z,100515.47
2023-01-11T21:57:53.634Z,100513.84
2023-01-11T22:00:20.944Z,100516.75
2023-01-11T22:07:01.553Z,100517.75
2023-01-11T22:09:28.855Z,100525.72
2023-01-11T22:11:56.008Z,100517.97
2023-01-11T22:14:23.375Z,100523.19
2023-01-11T22:16:50.754Z,100522.34
2023-01-11T22:23:36.656Z,100511.28
2023-01-11T22:26:09.135Z,100507.91
2023-01-11T22:42:17.325Z,100514.41
2023-01-11T22:44:44.478Z,100514.53
2023-01-11T22:47:11.728Z,100517.34
